Terminal Aerodrome Forecast
Issued by NWS

Home | Current Version | Previous Version | Text Only | Print | Product List | Glossary On
Versions: 1 2 3 4 5 6 7 8 9 10 11 12 13 14 15 16 17 18 19
000
FTUS46 KMFR 151916 AAA
TAFRBG
TAF AMD
KRBG 151916Z 1519/1618 34005KT 6SM -SHRA OVC035
     FM152100 01007KT 5SM -RA BR OVC025
     FM160900 00000KT 3SM BR OVC008
     FM161100 00000KT 1SM BR OVC002=

USA.gov is the U.S. government's official web portal to all federal, state and local government web resources and services.